CYYHCYGT

Guest
Details From CYYH - TALOYOAK
To CYGT - Igloolik
Flight Number -
Tags generated
Created
Modified
Stats Distance 326 nm / 604 km
Max Altitude 35,000 ft / 10,668 m
Waypoints 4
Social Downloads 0
Likes 0
Share VATSIM

Download

Looking for another format? Having issues loading an existing format? Contact us
Advertisement - Login to hide

Notes

Basic altitude profile: - Ascent Rate: 2500ft/min - Ascent Speed: 250kts - Cruise Altitude: 35000ft - Cruise Speed: 420kts - Descent Rate: 1500ft/min - Descent Speed: 250kts Options: - Use NATs: yes - Use PACOTS: yes - Use low airways: yes - Use high airways: yes

Route

CYYH YBB RR30 UX CYGT

ID Type Via Altitude Latitude Longitude Leg Dist Tot Dist Heading (true) Name
O CYYH APT - 0 ft / 0 m 69.54611˚ -93.57611˚ - 0 nm - TALOYOAK
YBB NDB - 35,000 ft / 10,668 m 68.53500˚ -89.78778˚ 101 nm 101 nm 125° / 128° KUGAARUK NDB
UX NDB RR30 (AWY-LO) 8,100 ft / 2,469 m 68.76722˚ -81.25639˚ 186 nm 288 nm 82° / 90° HALL BEACH NDB
O CYGT APT - 0 ft / 0 m 69.36482˚ -81.81709˚ 37 nm 326 nm 342° / 341° Igloolik

Altitude Profile

Advertisement - Login to hide

Weather


0- 5 10 15 20 25 30 35+ Temperature / ° C

Clouds and Precipitation
Forecast for 2017-12-11 06:00 UTC. Updated an hour ago

Ground ~20,000 ft ~40,000 ft Winds

CYYH

Details ICAO CYYH (YYH)
Name TALOYOAK
Region Canada
Timezone America/Cambridge_Bay (UTC-7.0)
Stats Elevation 92 ft / 28 m (AMSL)
Location 69.546111° -93.576113°
Runways 1
Magnetic Variation 12.547° W

METAR

CYYH 110200Z 33013KT 15SM -SN FEW027 BKN029 OVC048 M20/M23 A2977 RMK SC1SC4SC3 SLP085

Decode

TAF

TAF CYYH 102338Z 1100/1112 33017KT P6SM -SN SCT020 BKN040 TEMPO 1100/1112 2SM -SN BLSN BKN020 OVC040 RMK NXT FCST BY 110600Z

Decode

Departure Runways

ID Width Length Bearing (true) Bearing (mag) Surface Threshold Offset Overrun Length
15T 100 ft / 30 m 4,008 ft / 1,222 m 151.85° 164.40° Gravel 0 ft / 0 m 0 ft / 0 m
33T 100 ft / 30 m 4,008 ft / 1,222 m 331.87° 344.42° Gravel 0 ft / 0 m 0 ft / 0 m

CYGT

Details ICAO CYGT (YGT)
Name Igloolik
Region Canada
Timezone America/Iqaluit (UTC-5.0)
Stats Elevation 98 ft / 30 m (AMSL)
Location 69.364817° -81.817087°
Runways 1
Magnetic Variation 27.875° W

METAR

Not found

TAF

TAF CYGT 101813Z 1018/1021 28010KT P6SM SCT030 BKN100 TEMPO 1018/1021 5SM -SN BKN030 OVC100 RMK NXT FCST WILL BE ISSUED AT 111245Z

Decode

Destination Runways

ID Width Length Bearing (true) Bearing (mag) Surface Threshold Offset Overrun Length
15 98 ft / 30 m 4,502 ft / 1,372 m 145.64° 173.52° Dirt 0 ft / 0 m 0 ft / 0 m
33 98 ft / 30 m 4,502 ft / 1,372 m 325.65° 353.53° Dirt 0 ft / 0 m 0 ft / 0 m

Popular Alternatives